Time;durP1;ratioP1;P1;durP2;ratioP2;P2;SDS_P1;SDS_P2;PMS_P1;PMS_P2;Temp;Humidity;BMP_temperature;BMP_pressure;BME280_temperature;BME280_humidity;BME280_pressure;Samples;Min_cycle;Max_cycle;Signal;HPM_P1;HPM_P2
2023/05/17 00:01:55;;;;;;;0.10;0.10;;;8.80;99.90;;;8.94;100.00;100033.25;4915305;29;20611;-81
2023/05/17 00:04:22;;;;;;;0.20;0.20;;;8.80;99.90;;;9.04;100.00;100051.78;4900359;29;20279;-81
2023/05/17 00:06:49;;;;;;;0.20;0.20;;;8.80;99.90;;;8.94;100.00;100057.00;4915815;29;20239;-82
2023/05/17 00:09:16;;;;;;;0.10;0.10;;;8.80;99.90;;;8.98;100.00;100071.09;4913732;29;20236;-82
2023/05/17 00:11:44;;;;;;;0.10;0.10;;;8.70;99.90;;;8.90;100.00;100080.69;4916520;29;20235;-82
2023/05/17 00:14:11;;;;;;;0.20;0.20;;;8.80;99.90;;;8.79;100.00;100082.31;4917175;29;20242;-82
2023/05/17 00:16:41;;;;;;;4.30;0.75;;;8.70;99.90;;;8.87;100.00;100092.06;4916236;29;20243;-84
2023/05/17 00:19:08;;;;;;;0.20;0.20;;;8.70;99.90;;;8.87;100.00;100109.66;4916803;29;20247;-83
2023/05/17 00:21:36;;;;;;;0.10;0.10;;;8.70;99.90;;;8.79;100.00;100108.69;4917715;29;20231;-84
2023/05/17 00:24:04;;;;;;;0.20;0.20;;;8.70;99.90;;;8.76;100.00;100111.28;4917354;29;20254;-84
2023/05/17 00:26:32;;;;;;;0.20;0.20;;;;;;;8.71;100.00;100118.25;4919418;29;20245;-82
2023/05/17 00:29:00;;;;;;;0.10;0.10;;;8.60;99.90;;;8.63;100.00;100126.97;4920373;29;20239;-84
2023/05/17 00:31:27;;;;;;;0.10;0.10;;;8.50;99.90;;;8.68;100.00;100137.56;4911327;29;20242;-84
2023/05/17 00:33:54;;;;;;;0.20;0.20;;;8.50;99.90;;;8.74;100.00;100155.19;4908813;29;20249;-83
2023/05/17 00:36:21;;;;;;;0.20;0.20;;;8.60;99.90;;;8.79;100.00;100171.97;4920048;29;20247;-83
2023/05/17 00:38:49;;;;;;;0.10;0.10;;;8.60;99.90;;;8.86;100.00;100189.63;4913256;29;20250;-83
2023/05/17 00:41:16;;;;;;;0.20;0.20;;;7.40;99.90;;;8.69;100.00;100183.25;4913293;29;20254;-83
2023/05/17 00:43:44;;;;;;;0.20;0.20;;;8.60;99.90;;;8.65;100.00;100188.50;4915878;29;20787;-84
2023/05/17 00:46:11;;;;;;;0.20;0.20;;;8.50;99.90;;;8.71;100.00;100190.31;4912779;29;20236;-83
2023/05/17 00:48:39;;;;;;;0.20;0.20;;;8.50;99.90;;;8.73;100.00;100204.41;4913741;29;20231;-84
2023/05/17 00:51:07;;;;;;;0.20;0.20;;;8.50;99.90;;;8.70;100.00;100222.81;4899770;29;20235;-84
2023/05/17 00:53:36;;;;;;;0.10;0.10;;;;;;;8.67;100.00;100225.44;4910517;29;20258;-84
2023/05/17 00:56:04;;;;;;;0.20;0.20;;;8.50;99.90;;;8.70;100.00;100245.66;4899137;29;20294;-82
2023/05/17 00:58:32;;;;;;;0.10;0.10;;;8.50;99.90;;;8.65;100.00;100257.03;4896222;29;20227;-83
2023/05/17 01:01:00;;;;;;;0.20;0.20;;;;;;;8.60;100.00;100263.09;4895786;29;20247;-83
2023/05/17 01:03:28;;;;;;;0.20;0.20;;;8.40;99.90;;;8.66;100.00;100274.63;4911656;29;20232;-82
2023/05/17 01:05:55;;;;;;;0.10;0.10;;;8.40;99.90;;;8.61;100.00;100280.69;4893434;29;20303;-83
2023/05/17 01:08:23;;;;;;;0.20;0.20;;;8.40;99.90;;;8.58;100.00;100291.19;4910966;29;20531;-83
2023/05/17 01:11:10;;;;;;;0.20;0.20;;;8.40;99.90;;;8.54;100.00;100292.91;4908724;29;20235;-83
2023/05/17 01:14:00;;;;;;;0.20;0.20;;;8.40;99.90;;;8.55;100.00;100314.88;4906997;29;20298;-84
2023/05/17 01:16:35;;;;;;;0.13;0.13;;;8.40;99.90;;;8.60;100.00;100331.63;4914892;29;20231;-83
2023/05/17 01:19:49;;;;;;;0.20;0.20;;;8.40;99.90;;;8.61;100.00;100346.59;4900304;29;20294;-83
2023/05/17 01:22:46;;;;;;;0.10;0.10;;;8.40;99.90;;;8.61;100.00;100365.94;4931100;29;20241;-84
2023/05/17 01:25:38;;;;;;;0.10;0.10;;;8.40;99.90;;;8.53;100.00;100370.19;4915364;29;20243;-83
2023/05/17 01:28:10;;;;;;;0.20;0.20;;;8.40;99.90;;;8.57;100.00;100392.22;4914634;29;20235;-83
2023/05/17 01:30:38;;;;;;;0.20;0.20;;;8.40;99.90;;;8.52;100.00;100399.16;4913297;29;20227;-84
2023/05/17 01:33:08;;;;;;;0.20;0.20;;;8.30;99.90;;;8.50;100.00;100407.03;4897296;29;20242;-83
2023/05/17 01:35:35;;;;;;;0.10;0.10;;;;;;;8.46;100.00;100413.13;4892087;29;20263;-84
2023/05/17 01:38:03;;;;;;;0.20;0.20;;;8.30;99.90;;;8.52;100.00;100421.13;4913373;29;20287;-84
2023/05/17 01:40:35;;;;;;;0.17;0.17;;;8.40;99.90;;;8.49;100.00;100447.44;4913117;29;20254;-83
2023/05/17 01:44:14;;;;;;;0.10;0.10;;;8.30;99.90;;;8.47;100.00;100453.53;4911998;29;20239;-84
2023/05/17 01:46:42;;;;;;;0.20;0.20;;;8.30;99.90;;;8.46;100.00;100459.69;4855451;29;20229;-85
2023/05/17 01:49:29;;;;;;;0.20;0.20;;;8.30;99.90;;;8.41;100.00;100464.88;4904354;29;20242;-84
2023/05/17 01:52:08;;;;;;;0.10;0.10;;;8.30;99.90;;;8.35;100.00;100475.28;4894950;29;20239;-83
2023/05/17 01:54:46;;;;;;;0.20;0.20;;;8.20;99.90;;;8.39;100.00;100492.03;4912369;29;20234;-83
2023/05/17 01:57:15;;;;;;;0.20;0.20;;;8.20;99.90;;;8.39;100.00;100499.94;4896570;29;20616;-83
2023/05/17 01:59:44;;;;;;;0.20;0.20;;;8.10;99.90;;;8.34;100.00;100508.66;4905172;29;20242;-84
2023/05/17 02:02:12;;;;;;;0.20;0.20;;;;;;;8.29;100.00;100515.56;4907235;29;20673;-85
2023/05/17 02:04:39;;;;;;;0.10;0.10;;;8.10;99.90;;;8.27;100.00;100530.44;4911401;29;20231;-84
2023/05/17 02:07:07;;;;;;;0.10;0.10;;;8.10;99.90;;;8.23;100.00;100543.53;4914282;29;20242;-84
2023/05/17 02:09:34;;;;;;;0.10;0.10;;;8.10;99.90;;;8.15;100.00;100561.81;4906562;29;20239;-84
2023/05/17 02:12:01;;;;;;;0.10;0.10;;;8.10;99.90;;;8.12;100.00;100592.47;4912877;29;20231;-84
2023/05/17 02:14:28;;;;;;;0.10;0.10;;;8.00;99.90;;;8.24;100.00;100619.06;4912520;29;20238;-85
2023/05/17 02:16:56;;;;;;;2.20;0.55;;;;;;;8.09;100.00;100618.75;4911379;29;20270;-84
2023/05/17 02:19:23;;;;;;;0.20;0.20;;;8.00;99.90;;;8.09;100.00;100619.63;4910662;29;20253;-84
2023/05/17 02:21:50;;;;;;;0.20;0.20;;;8.00;99.90;;;8.01;100.00;100627.38;4907087;29;20250;-84
2023/05/17 02:24:18;;;;;;;0.10;0.10;;;8.00;99.90;;;8.03;100.00;100635.28;4916063;29;20247;-84
2023/05/17 02:26:47;;;;;;;0.10;0.10;;;;;;;7.83;100.00;100640.09;4911488;29;20250;-84
2023/05/17 02:29:14;;;;;;;0.20;0.20;;;7.80;99.90;;;7.81;100.00;100654.97;4911432;29;20253;-83
2023/05/17 02:31:41;;;;;;;0.20;0.20;;;7.70;99.90;;;7.89;100.00;100665.69;4907234;29;20238;-83
2023/05/17 02:34:08;;;;;;;0.20;0.20;;;7.70;99.90;;;7.79;100.00;100674.19;4914032;29;20254;-83
2023/05/17 02:36:35;;;;;;;0.20;0.20;;;7.70;99.90;;;7.92;100.00;100692.09;4911708;29;20238;-82
2023/05/17 02:39:02;;;;;;;0.20;0.20;;;7.70;99.90;;;7.76;100.00;100695.19;4913688;29;20247;-82
2023/05/17 02:41:30;;;;;;;0.20;0.20;;;;;;;7.73;100.00;100693.38;4905280;29;20231;-84
2023/05/17 02:43:57;;;;;;;0.10;0.10;;;6.70;99.90;;;7.63;100.00;100704.53;4911350;29;20242;-84
2023/05/17 02:46:24;;;;;;;0.20;0.20;;;7.60;99.90;;;7.70;100.00;100720.50;4908970;29;20243;-84
2023/05/17 02:48:51;;;;;;;0.20;0.20;;;7.60;99.90;;;7.56;100.00;100732.44;4908536;29;20239;-84
2023/05/17 02:51:19;;;;;;;0.10;0.10;;;7.50;99.90;;;7.65;100.00;100740.56;4910251;29;20235;-84
2023/05/17 02:53:46;;;;;;;0.10;0.10;;;;;;;7.59;100.00;100756.19;4911125;29;20243;-83
2023/05/17 02:56:13;;;;;;;0.20;0.20;;;7.50;99.90;;;7.46;100.00;100766.34;4908515;29;20246;-84
2023/05/17 02:58:41;;;;;;;0.20;0.20;;;7.50;99.90;;;7.61;100.00;100791.34;4912985;29;20239;-83
2023/05/17 03:01:08;;;;;;;0.20;0.20;;;;;;;7.60;100.00;100796.56;4910021;29;20230;-84
2023/05/17 03:03:35;;;;;;;0.17;0.17;;;;;;;7.55;100.00;100801.69;4907900;29;20254;-84
2023/05/17 03:06:03;;;;;;;0.20;0.20;;;7.40;99.90;;;7.56;100.00;100832.44;4912945;29;20238;-84
2023/05/17 03:08:31;;;;;;;0.10;0.10;;;;;;;7.57;100.00;100838.59;4907033;29;20242;-82
2023/05/17 03:10:58;;;;;;;0.20;0.20;;;7.40;99.90;;;7.50;100.00;100841.91;4914124;29;20245;-83
2023/05/17 03:13:25;;;;;;;0.20;0.20;;;7.40;99.90;;;7.45;100.00;100848.78;4909853;29;20246;-81
2023/05/17 03:15:52;;;;;;;0.20;0.20;;;7.40;99.90;;;7.40;100.00;100853.91;4909026;29;20253;-83
2023/05/17 03:18:19;;;;;;;0.20;0.20;;;7.30;99.90;;;7.36;100.00;100863.47;4912838;29;20246;-84
2023/05/17 03:20:46;;;;;;;0.10;0.10;;;7.10;99.90;;;7.28;100.00;100871.97;4910683;29;20555;-83
2023/05/17 03:23:13;;;;;;;0.20;0.20;;;7.10;99.90;;;7.32;100.00;100884.38;4913582;29;20242;-84
2023/05/17 03:25:40;;;;;;;0.20;0.20;;;7.10;99.90;;;7.29;100.00;100890.44;4911814;29;20235;-84
2023/05/17 03:28:07;;;;;;;0.20;0.20;;;7.10;99.90;;;7.13;100.00;100898.72;4911009;29;20234;-84
2023/05/17 03:30:35;;;;;;;0.20;0.20;;;7.00;99.90;;;7.07;100.00;100904.69;4905514;29;20235;-83
2023/05/17 03:33:02;;;;;;;0.20;0.20;;;7.00;99.90;;;7.00;100.00;100921.13;4912088;29;20249;-84
2023/05/17 03:35:29;;;;;;;0.20;0.20;;;6.90;99.90;;;7.00;100.00;100936.91;4912563;29;20239;-84
2023/05/17 03:37:56;;;;;;;0.20;0.20;;;7.00;99.90;;;7.02;100.00;100952.72;4896280;29;20245;-83
2023/05/17 03:40:24;;;;;;;0.20;0.20;;;6.90;99.90;;;6.99;100.00;100958.78;4894520;29;20242;-84
2023/05/17 03:42:53;;;;;;;0.20;0.20;;;;;;;6.93;100.00;100969.09;4906787;29;20239;-84
2023/05/17 03:45:20;;;;;;;0.20;0.20;;;6.90;99.90;;;6.89;100.00;100979.47;4904864;29;20231;-84
2023/05/17 03:47:47;;;;;;;0.10;0.10;;;6.80;99.90;;;6.97;100.00;100997.28;4904095;29;20332;-83
2023/05/17 03:50:14;;;;;;;0.20;0.20;;;6.90;99.90;;;7.02;100.00;101000.06;4911317;29;20262;-83
2023/05/17 03:52:41;;;;;;;0.22;0.22;;;7.00;99.90;;;7.06;100.00;101000.22;4906729;29;20241;-84
2023/05/17 03:55:08;;;;;;;0.20;0.20;;;7.00;99.90;;;7.08;100.00;100992.38;4907498;29;20240;-83
2023/05/17 03:57:35;;;;;;;0.30;0.30;;;7.00;99.90;;;7.10;100.00;101002.94;4911361;29;20239;-84
2023/05/17 04:00:08;;;;;;;0.20;0.20;;;7.00;99.90;;;7.15;100.00;101004.88;4909861;29;20245;-84
2023/05/17 04:02:35;;;;;;;0.30;0.30;;;6.90;99.90;;;7.06;100.00;101001.94;4910064;29;20231;-83
2023/05/17 04:05:02;;;;;;;0.20;0.20;;;6.90;99.90;;;7.13;100.00;101013.56;4910670;29;20242;-84
2023/05/17 04:07:30;;;;;;;0.20;0.20;;;7.00;99.90;;;7.12;100.00;101015.28;4916230;29;20247;-84
2023/05/17 04:10:01;;;;;;;0.20;0.20;;;7.00;99.90;;;7.05;100.00;101014.19;4913762;29;20236;-83
2023/05/17 04:12:28;;;;;;;0.20;0.20;;;7.00;99.90;;;7.04;100.00;101025.56;4904170;29;20236;-83
2023/05/17 04:14:55;;;;;;;0.20;0.20;;;6.90;99.90;;;7.06;100.00;101037.03;4905519;29;20239;-83
2023/05/17 04:17:23;;;;;;;0.20;0.20;;;;;;;7.08;100.00;101039.72;4914627;29;20231;-83
2023/05/17 04:19:50;;;;;;;0.20;0.20;;;7.00;99.90;;;7.05;100.00;101047.50;4916398;29;20239;-83
2023/05/17 04:22:21;;;;;;;0.20;0.20;;;;;;;7.05;100.00;101061.53;4917184;29;20239;-83
2023/05/17 04:24:48;;;;;;;0.30;0.30;;;;;;;7.14;100.00;101068.84;4909503;29;20254;-84
2023/05/17 04:27:15;;;;;;;0.25;0.25;;;6.90;99.90;;;7.15;100.00;101075.00;4917185;29;20254;-84
2023/05/17 04:29:42;;;;;;;0.30;0.30;;;7.00;99.90;;;7.16;100.00;101074.16;4916729;29;20242;-83
2023/05/17 04:32:10;;;;;;;0.20;0.20;;;;;;;7.26;100.00;101086.75;4916106;29;20246;-83
2023/05/17 04:34:37;;;;;;;0.20;0.20;;;;;;;7.29;100.00;101087.75;4916661;29;20238;-83
2023/05/17 04:37:05;;;;;;;0.20;0.20;;;;;;;7.32;100.00;101090.47;4916119;29;20242;-84
2023/05/17 04:39:33;;;;;;;0.30;0.30;;;;;;;7.30;100.00;101094.81;4914824;29;20257;-83
2023/05/17 04:42:01;;;;;;;0.20;0.20;;;;;;;7.27;100.00;101102.59;4909386;29;20240;-80
2023/05/17 04:44:28;;;;;;;0.10;0.10;;;;;;;7.33;100.00;101107.16;4917012;29;20235;-83
2023/05/17 04:46:56;;;;;;;0.20;0.20;;;;;;;7.42;100.00;101114.47;4910753;29;20247;-82
2023/05/17 04:49:23;;;;;;;0.20;0.20;;;;;;;7.50;100.00;101128.75;4910760;29;20243;-83
2023/05/17 04:51:51;;;;;;;0.20;0.20;;;7.20;99.90;;;7.48;100.00;101128.72;4914102;29;20704;-84
2023/05/17 04:54:19;;;;;;;0.20;0.20;;;;;;;7.50;100.00;101131.41;4914516;29;20247;-84
2023/05/17 04:56:47;;;;;;;0.20;0.20;;;;;;;7.57;100.00;101136.00;4916354;29;20246;-84
2023/05/17 04:59:14;;;;;;;0.45;0.45;;;7.40;99.90;;;7.63;100.00;101145.00;4911098;29;20247;-83
2023/05/17 05:01:41;;;;;;;0.20;0.20;;;7.70;99.90;;;8.03;100.00;101189.31;4918065;29;20247;-82
2023/05/17 05:04:08;;;;;;;0.20;0.20;;;;;;;7.93;100.00;101167.91;4916294;29;20246;-82
2023/05/17 05:06:36;;;;;;;0.10;0.10;;;7.70;99.90;;;7.94;100.00;101148.63;4913833;29;20330;-82
2023/05/17 05:09:03;;;;;;;0.20;0.20;;;7.70;99.90;;;8.00;100.00;101151.44;4914644;29;20239;-82
2023/05/17 05:11:31;;;;;;;0.20;0.20;;;7.80;99.90;;;8.09;100.00;101150.84;4917080;29;20302;-81
2023/05/17 05:13:58;;;;;;;0.20;0.20;;;7.80;99.90;;;8.20;100.00;101152.06;4911779;29;20692;-82
2023/05/17 05:16:25;;;;;;;0.20;0.20;;;;;;;8.28;100.00;101150.53;4899124;29;20240;-82
2023/05/17 05:18:52;;;;;;;0.30;0.30;;;8.10;99.90;;;8.37;100.00;101149.97;4914334;29;20247;-82
2023/05/17 05:21:20;;;;;;;0.20;0.20;;;8.10;99.90;;;8.41;100.00;101149.19;4915511;29;20307;-82
2023/05/17 05:23:47;;;;;;;0.20;0.20;;;8.20;99.90;;;8.45;100.00;101151.06;4915565;29;20329;-82
2023/05/17 05:26:14;;;;;;;0.10;0.10;;;8.20;99.90;;;8.57;100.00;101160.22;4915292;29;20243;-82
2023/05/17 05:28:42;;;;;;;0.20;0.20;;;8.40;99.90;;;8.67;100.00;101158.75;4914355;29;20246;-82
2023/05/17 05:31:09;;;;;;;0.20;0.20;;;8.40;99.90;;;8.84;100.00;101153.94;4916590;29;20274;-82
2023/05/17 05:33:36;;;;;;;0.20;0.20;;;8.50;99.90;;;8.93;100.00;101160.34;4915776;29;20235;-81
2023/05/17 05:36:04;;;;;;;0.10;0.10;;;8.70;99.90;;;9.02;100.00;101159.72;4915100;29;20249;-82
2023/05/17 05:38:31;;;;;;;0.70;0.55;;;8.80;99.90;;;8.98;100.00;101145.53;4915448;29;20231;-82
2023/05/17 05:40:58;;;;;;;0.20;0.20;;;8.80;99.90;;;9.01;100.00;101134.19;4913904;29;20235;-82
2023/05/17 05:43:25;;;;;;;0.20;0.20;;;;;;;8.96;100.00;101133.16;4915237;29;20231;-80
2023/05/17 05:45:53;;;;;;;0.20;0.20;;;8.80;99.90;;;8.95;100.00;101127.00;4914229;29;20780;-83
2023/05/17 05:48:20;;;;;;;0.20;0.20;;;8.80;99.90;;;9.03;100.00;101123.66;4914713;29;20231;-83
2023/05/17 05:50:47;;;;;;;0.40;0.40;;;9.00;99.90;;;9.25;100.00;101147.16;4915875;29;20333;-82
2023/05/17 05:53:14;;;;;;;0.20;0.20;;;8.90;99.90;;;9.33;100.00;101142.97;4914788;29;20236;-83
2023/05/17 05:55:45;;;;;;;0.10;0.10;;;9.20;99.90;;;9.47;100.00;101145.94;4914869;29;20234;-83
2023/05/17 05:58:13;;;;;;;0.10;0.10;;;9.20;99.90;;;9.62;100.00;101152.50;4916344;29;20239;-83
2023/05/17 06:00:40;;;;;;;0.52;0.52;;;5.30;99.90;;;9.71;100.00;101146.53;4912796;29;20238;-83
2023/05/17 06:03:07;;;;;;;0.20;0.20;;;9.60;99.90;;;9.78;100.00;101127.34;4913646;29;20293;-83
2023/05/17 06:05:35;;;;;;;0.10;0.10;;;9.50;99.90;;;9.99;100.00;101113.72;4923236;29;20286;-83
2023/05/17 06:08:05;;;;;;;0.20;0.20;;;9.70;99.90;;;10.05;100.00;101099.75;4898409;29;20235;-83
2023/05/17 06:10:33;;;;;;;0.20;0.20;;;9.80;99.90;;;10.12;100.00;101078.75;4915859;29;20238;-82
2023/05/17 06:13:00;;;;;;;0.20;0.20;;;9.90;99.90;;;10.12;100.00;101057.63;4911796;29;20243;-81
2023/05/17 06:15:31;;;;;;;0.20;0.20;;;9.90;99.90;;;10.16;100.00;101042.72;4913426;29;20234;-81
2023/05/17 06:17:59;;;;;;;0.10;0.10;;;9.90;99.90;;;10.25;100.00;101013.84;4921300;29;20230;-81
2023/05/17 06:20:29;;;;;;;0.20;0.20;;;10.00;99.90;;;10.26;100.00;100992.75;4914097;29;20235;-85
2023/05/17 06:23:00;;;;;;;0.20;0.20;;;10.10;99.90;;;10.59;100.00;100994.25;4916413;29;20234;-82
2023/05/17 06:25:27;;;;;;;0.10;0.10;;;10.30;99.90;;;10.56;100.00;100991.56;4912741;29;20244;-82
2023/05/17 06:27:54;;;;;;;0.10;0.10;;;10.30;99.90;;;10.67;100.00;100981.16;4912829;29;20265;-82
2023/05/17 06:30:22;;;;;;;0.20;0.20;;;10.40;99.90;;;10.88;100.00;100976.22;4915876;29;20250;-82
2023/05/17 06:32:49;;;;;;;0.10;0.10;;;10.60;99.90;;;10.88;100.00;100961.25;4913344;29;20230;-82
2023/05/17 06:35:16;;;;;;;0.63;0.63;;;10.60;99.90;;;10.99;100.00;100949.94;4916366;29;20243;-82
2023/05/17 06:37:43;;;;;;;0.10;0.10;;;10.70;99.90;;;10.97;100.00;100914.63;4919350;29;20732;-82
2023/05/17 06:40:11;;;;;;;0.20;0.20;;;10.70;99.90;;;11.01;100.00;100908.50;4923115;29;20239;-81
2023/05/17 06:42:43;;;;;;;0.20;0.20;;;10.90;99.90;;;11.21;100.00;100893.81;4914571;29;20243;-82
2023/05/17 06:45:10;;;;;;;0.20;0.20;;;10.90;99.90;;;10.97;100.00;100852.00;4918932;29;20234;-82
2023/05/17 06:47:38;;;;;;;0.10;0.10;;;13.30;99.90;;;11.15;100.00;100849.59;4915476;29;20247;-81
2023/05/17 06:50:07;;;;;;;0.30;0.30;;;10.90;99.90;;;11.13;100.00;100818.69;4920185;29;20234;-82
2023/05/17 06:52:35;;;;;;;0.10;0.10;;;10.90;99.90;;;11.12;100.00;100806.31;4916303;29;20321;-82
2023/05/17 06:55:02;;;;;;;0.10;0.10;;;11.00;99.90;;;11.32;100.00;100810.09;4908923;29;20243;-81
2023/05/17 06:57:29;;;;;;;0.10;0.10;;;11.00;99.90;;;11.31;100.00;100808.31;4921218;29;20242;-82
2023/05/17 06:59:57;;;;;;;0.10;0.10;;;11.10;99.90;;;11.42;100.00;100804.03;4916294;29;20235;-81
2023/05/17 07:02:24;;;;;;;0.10;0.10;;;11.20;99.90;;;11.64;100.00;100823.72;4914767;29;20234;-82
2023/05/17 07:04:51;;;;;;;0.25;0.25;;;;;;;11.81;100.00;100813.34;4918504;29;20297;-81
2023/05/17 07:07:19;;;;;;;0.20;0.20;;;11.50;99.90;;;12.00;100.00;100819.72;4911227;29;20228;-83
2023/05/17 07:09:46;;;;;;;0.10;0.10;;;11.70;99.90;;;11.91;100.00;100791.38;4916758;29;20235;-80
2023/05/17 07:12:13;;;;;;;0.10;0.10;;;11.80;99.90;;;11.92;100.00;100790.50;4921628;29;20242;-80
2023/05/17 07:14:40;;;;;;;0.10;0.10;;;11.60;99.90;;;11.83;100.00;100755.97;4918797;29;20242;-81
2023/05/17 07:17:09;;;;;;;0.10;0.10;;;;;;;11.83;100.00;100753.31;4912694;29;20243;-82
2023/05/17 07:19:36;;;;;;;0.10;0.10;;;11.70;99.90;;;11.99;100.00;100749.03;4921482;29;20233;-83
2023/05/17 07:22:04;;;;;;;0.10;0.10;;;11.70;99.90;;;11.84;100.00;100733.88;4922954;29;20250;-81
2023/05/17 07:24:31;;;;;;;0.10;0.10;;;11.70;99.90;;;12.04;100.00;100734.03;4921926;29;20274;-81
2023/05/17 07:27:01;;;;;;;0.10;0.10;;;12.00;99.90;;;12.13;100.00;100719.09;4923106;29;20241;-81
2023/05/17 07:29:28;;;;;;;0.10;0.10;;;12.00;99.90;;;12.15;100.00;100724.41;4914536;29;20234;-83
2023/05/17 07:31:55;;;;;;;0.10;0.10;;;11.80;99.90;;;11.92;100.00;100710.09;4915992;29;20298;-80
2023/05/17 07:34:22;;;;;;;0.10;0.10;;;11.80;99.90;;;11.62;100.00;100687.69;4919229;29;20231;-79
2023/05/17 07:36:49;;;;;;;0.55;0.55;;;11.60;99.90;;;11.68;100.00;100716.91;4918784;29;20270;-80
2023/05/17 07:39:17;;;;;;;0.10;0.10;;;;;;;11.67;100.00;100704.53;4920684;29;20262;-82
2023/05/17 07:41:44;;;;;;;0.10;0.10;;;11.60;99.90;;;11.83;100.00;100701.19;4917826;29;20603;-81
2023/05/17 07:44:11;;;;;;;0.10;0.10;;;11.60;99.90;;;11.94;100.00;100697.75;4907021;29;20243;-81
2023/05/17 07:46:38;;;;;;;0.13;0.13;;;11.70;99.90;;;11.89;100.00;100673.84;4922358;29;20235;-81
2023/05/17 07:49:05;;;;;;;0.10;0.10;;;11.70;99.90;;;11.71;100.00;100637.47;4922727;29;20317;-80
2023/05/17 07:51:34;;;;;;;0.10;0.10;;;11.60;99.90;;;12.04;100.00;100667.78;4914216;29;20241;-81
2023/05/17 07:54:02;;;;;;;0.10;0.10;;;11.80;99.90;;;12.03;100.00;100666.00;4915081;29;20251;-81
2023/05/17 07:56:29;;;;;;;0.10;0.10;;;11.80;99.90;;;12.14;100.00;100674.91;4910353;29;20239;-80
2023/05/17 07:58:59;;;;;;;0.20;0.20;;;12.10;99.90;;;12.20;100.00;100650.19;4910980;29;20243;-81
2023/05/17 08:01:26;;;;;;;0.10;0.10;;;11.90;99.90;;;12.83;100.00;100677.03;4908462;29;20245;-81
2023/05/17 08:03:54;;;;;;;0.10;0.10;;;12.60;99.90;;;12.98;100.00;100670.88;4906519;29;20235;-81
2023/05/17 08:06:21;;;;;;;0.10;0.10;;;12.60;99.90;;;13.29;100.00;100673.69;4908507;29;20594;-81
2023/05/17 08:08:48;;;;;;;0.10;0.10;;;12.90;99.90;;;13.20;100.00;100613.47;4912575;29;20305;-81
2023/05/17 08:11:16;;;;;;;0.10;0.10;;;12.90;99.90;;;13.11;100.00;100573.59;4905632;29;20246;-82
2023/05/17 08:13:44;;;;;;;0.10;0.10;;;12.40;99.90;;;12.52;100.00;100493.84;4914141;29;20238;-81
2023/05/17 08:16:11;;;;;;;0.10;0.10;;;12.40;99.90;;;12.89;100.00;100561.16;4917087;29;20239;-81
2023/05/17 08:18:44;;;;;;;0.10;0.10;;;13.00;99.90;;;12.81;100.00;100566.44;4911635;29;20270;-81
2023/05/17 08:21:11;;;;;;;0.10;0.10;;;12.60;99.90;;;13.35;100.00;100607.28;4910573;29;20249;-82
2023/05/17 08:23:40;;;;;;;0.20;0.20;;;9.90;99.90;;;13.34;100.00;100565.66;4914330;29;20242;-81
2023/05/17 08:26:08;;;;;;;0.10;0.10;;;13.10;99.90;;;13.42;100.00;100561.25;4909918;29;20241;-80
2023/05/17 08:28:35;;;;;;;0.20;0.20;;;13.20;99.90;;;13.24;100.00;100530.25;4915625;29;20329;-80
2023/05/17 08:31:03;;;;;;;0.10;0.10;;;13.00;99.90;;;13.32;100.00;100555.03;4912215;29;20265;-80
2023/05/17 08:33:30;;;;;;;0.10;0.10;;;13.20;99.90;;;13.56;100.00;100555.91;4904443;29;20240;-80
2023/05/17 08:36:01;;;;;;;0.20;0.20;;;13.30;99.90;;;14.30;100.00;100561.06;4912338;29;20290;-81
2023/05/17 08:38:28;;;;;;;0.10;0.10;;;13.70;99.90;;;14.50;100.00;100497.13;4917013;29;20239;-81
2023/05/17 08:40:58;;;;;;;0.10;0.10;;;;;;;14.16;100.00;100405.94;4915076;29;20247;-81
2023/05/17 08:43:26;;;;;;;0.10;0.10;;;14.00;99.90;;;13.98;100.00;100387.44;4914029;29;20243;-80
2023/05/17 08:45:57;;;;;;;0.10;0.10;;;;;;;13.70;100.00;100325.56;4902100;29;20246;-81
2023/05/17 08:48:26;;;;;;;0.10;0.10;;;13.10;99.90;;;13.23;100.00;100257.63;4915163;29;20241;-81
2023/05/17 08:50:56;;;;;;;0.00;0.00;;;13.40;99.90;;;13.70;100.00;100353.03;4913351;29;20232;-80
2023/05/17 08:53:25;;;;;;;0.10;0.10;;;13.70;99.90;;;14.12;100.00;100366.97;4912180;29;20238;-82
2023/05/17 08:55:59;;;;;;;0.00;0.00;;;13.90;99.90;;;14.26;100.00;100349.13;4913459;29;20272;-80
2023/05/17 08:58:33;;;;;;;0.00;0.00;;;14.40;99.90;;;15.05;100.00;100377.78;4908207;29;20236;-80
2023/05/17 09:01:21;;;;;;;0.10;0.10;;;14.40;99.90;;;14.17;100.00;100191.41;4921201;29;20327;-81
2023/05/17 09:03:52;;;;;;;0.10;0.10;;;;;;;14.50;100.00;100286.03;4917003;29;20295;-82
2023/05/17 09:06:21;;;;;;;0.00;0.00;;;14.20;99.90;;;14.24;100.00;100225.91;4917175;29;20322;-82
2023/05/17 09:08:53;;;;;;;0.10;0.10;;;14.00;99.90;;;14.15;100.00;100244.59;4916942;29;20250;-82
2023/05/17 09:11:31;;;;;;;0.10;0.10;;;13.40;99.90;;;13.67;100.00;100153.75;4917165;29;20242;-82
2023/05/17 09:14:02;;;;;;;0.10;0.10;;;13.40;99.90;;;13.52;100.00;100152.97;4917028;29;20246;-82
2023/05/17 09:16:30;;;;;;;0.45;0.38;;;13.30;99.90;;;13.54;100.00;100188.38;4913703;29;20243;-82
2023/05/17 09:18:58;;;;;;;0.10;0.10;;;13.30;99.90;;;13.58;100.00;100206.06;4916627;29;20274;-82
2023/05/17 09:21:29;;;;;;;0.10;0.10;;;13.40;99.90;;;13.68;100.00;100207.75;4916829;29;20254;-79
2023/05/17 09:24:00;;;;;;;0.00;0.00;;;13.70;99.90;;;13.97;100.00;100274.00;4915589;29;20243;-79
2023/05/17 09:26:43;;;;;;;0.00;0.00;;;13.70;99.90;;;13.84;100.00;100225.34;4909267;29;20775;-82
2023/05/17 09:29:13;;;;;;;0.10;0.10;;;13.80;99.90;;;13.94;100.00;100186.28;4915803;29;20269;-83
2023/05/17 09:31:42;;;;;;;0.10;0.10;;;13.80;99.90;;;14.35;100.00;100221.41;4911413;29;20232;-82
2023/05/17 09:34:10;;;;;;;0.00;0.00;;;14.10;99.90;;;14.33;100.00;100145.16;4909892;29;20239;-82
2023/05/17 09:36:41;;;;;;;0.10;0.10;;;13.90;99.90;;;14.20;100.00;100016.72;4891428;29;20251;-82
2023/05/17 09:39:11;;;;;;;0.10;0.10;;;14.00;99.90;;;14.17;100.00;99999.94;4907709;29;20235;-81
2023/05/17 09:41:48;;;;;;;0.00;0.00;;;13.90;99.90;;;14.12;100.00;100026.59;4904789;29;20232;-81
2023/05/17 09:44:16;;;;;;;0.00;0.00;;;14.00;99.90;;;14.02;100.00;99998.34;4911678;29;20313;-81
2023/05/17 09:46:47;;;;;;;0.10;0.10;;;13.70;99.90;;;13.90;100.00;99982.53;4914879;29;20231;-81
2023/05/17 09:49:16;;;;;;;0.10;0.10;;;13.70;99.90;;;13.51;100.00;99923.63;4913554;29;20295;-81
2023/05/17 09:51:46;;;;;;;0.10;0.10;;;13.30;99.90;;;13.54;100.00;99946.63;4929627;29;20234;-81
2023/05/17 09:54:14;;;;;;;0.10;0.10;;;13.30;99.90;;;13.61;100.00;100004.13;4904714;29;20249;-81
2023/05/17 09:56:42;;;;;;;0.10;0.10;;;13.50;99.90;;;13.69;100.00;100012.88;4910256;29;20235;-81
2023/05/17 09:59:15;;;;;;;0.10;0.10;;;13.40;99.90;;;14.09;100.00;100070.03;4895793;29;20731;-81
2023/05/17 10:01:44;;;;;;;0.10;0.10;;;13.60;99.90;;;13.75;100.00;99997.75;4914197;29;20257;-81
2023/05/17 10:04:12;;;;;;;0.10;0.10;;;13.60;99.90;;;14.13;100.00;100046.97;4911790;29;20667;-81
2023/05/17 10:06:43;;;;;;;1.02;1.02;;;14.60;99.90;;;14.37;100.00;100062.66;4906789;29;20322;-82
2023/05/17 10:09:21;;;;;;;0.03;0.03;;;14.00;99.90;;;14.45;100.00;100043.97;4916341;29;20552;-82
2023/05/17 10:11:51;;;;;;;0.20;0.20;;;14.00;99.90;;;14.22;100.00;100027.34;4917679;29;20309;-82
2023/05/17 10:14:31;;;;;;;0.10;0.10;;;14.00;99.90;;;14.36;100.00;100041.38;4916413;29;20243;-82
2023/05/17 10:17:01;;;;;;;0.10;0.10;;;14.10;99.90;;;14.33;100.00;100006.84;4913150;29;20246;-82
2023/05/17 10:19:30;;;;;;;0.10;0.10;;;14.00;99.90;;;14.56;100.00;100049.16;4916305;29;20251;-82
2023/05/17 10:21:58;;;;;;;0.10;0.10;;;14.20;99.90;;;14.43;100.00;99957.97;4917231;29;20322;-83
2023/05/17 10:24:47;;;;;;;0.10;0.10;;;14.30;99.90;;;14.52;100.00;99965.81;4920807;29;20276;-83
2023/05/17 10:27:14;;;;;;;0.10;0.10;;;14.30;99.90;;;14.75;100.00;99978.78;4916140;29;20246;-82
2023/05/17 10:29:44;;;;;;;0.00;0.00;;;14.70;99.90;;;14.91;100.00;100001.59;4914909;29;20266;-82
2023/05/17 10:32:16;;;;;;;0.10;0.10;;;;;;;15.45;100.00;100006.91;4917240;29;20231;-83